Terminal Aerodrome Forecast
Issued by NWS Wichita, KS

Home | Current Version | Previous Version | Text Only | Print | Product List | Glossary On
Versions: 1 2 3 4 5 6 7 8 9 10 11 12 13 14 15 16 17 18
000
FTUS43 KICT 251120
TAFICT
TAF
KICT 251120Z 2512/2612 17015KT P6SM OVC200
     FM251400 18019G27KT P6SM OVC200
     FM251700 18027G37KT P6SM BKN200
     FM260100 18016KT P6SM SCT200=

USA.gov is the U.S. government's official web portal to all federal, state and local government web resources and services.